Time;durP1;ratioP1;P1;durP2;ratioP2;P2;SDS_P1;SDS_P2;PMS_P1;PMS_P2;Temp;Humidity;BMP_temperature;BMP_pressure;BME280_temperature;BME280_humidity;BME280_pressure;Samples;Min_cycle;Max_cycle;Signal;HPM_P1;HPM_P2
2022/03/27 00:00:03;;;;;;;24.60;13.23;;;8.70;99.90;;;;;;4987240;28;20054;-61
2022/03/27 00:02:41;;;;;;;27.25;14.32;;;8.60;99.90;;;;;;4970908;28;20042;-61
2022/03/27 00:05:10;;;;;;;27.00;13.43;;;8.60;99.90;;;;;;4973362;28;20057;-61
2022/03/27 00:07:39;;;;;;;25.23;13.32;;;8.60;99.90;;;;;;4988554;28;20504;-62
2022/03/27 00:10:07;;;;;;;27.73;12.73;;;8.50;99.90;;;;;;4987232;28;20054;-61
2022/03/27 00:12:36;;;;;;;33.08;12.88;;;8.50;99.90;;;;;;4982182;28;20513;-62
2022/03/27 00:15:05;;;;;;;25.48;13.32;;;8.40;99.90;;;;;;5004330;28;20058;-61
2022/03/27 00:17:34;;;;;;;29.00;13.07;;;8.40;99.90;;;;;;4986333;28;20042;-60
2022/03/27 00:20:04;;;;;;;28.75;12.88;;;8.30;99.90;;;;;;4984953;28;20066;-61
2022/03/27 00:22:32;;;;;;;23.00;11.85;;;8.30;99.90;;;;;;4980593;28;20046;-61
2022/03/27 00:25:00;;;;;;;26.98;12.43;;;8.30;99.90;;;;;;4987808;28;20055;-61
2022/03/27 00:27:28;;;;;;;23.88;13.00;;;8.20;99.90;;;;;;4988553;28;20038;-65
2022/03/27 00:29:56;;;;;;;25.45;12.70;;;8.20;99.90;;;;;;4988957;28;20057;-62
2022/03/27 00:32:23;;;;;;;24.55;12.02;;;8.20;99.90;;;;;;4988617;28;20509;-61
2022/03/27 00:34:53;;;;;;;27.75;12.27;;;8.20;99.90;;;;;;4988695;28;20410;-62
2022/03/27 00:37:20;;;;;;;28.88;12.65;;;8.20;99.90;;;;;;4989164;28;20049;-62
2022/03/27 00:39:48;;;;;;;25.52;12.73;;;8.10;99.90;;;;;;4988027;28;20608;-61
2022/03/27 00:42:19;;;;;;;26.40;12.25;;;8.10;99.90;;;;;;4988533;28;20042;-61
2022/03/27 00:44:47;;;;;;;23.00;11.85;;;8.10;99.90;;;;;;4987414;28;20066;-66
2022/03/27 00:47:15;;;;;;;25.25;11.63;;;8.10;99.90;;;;;;5000281;28;20429;-65
2022/03/27 00:49:42;;;;;;;19.58;11.25;;;8.20;99.90;;;;;;4986613;28;20046;-64
2022/03/27 00:52:10;;;;;;;25.80;11.02;;;8.20;99.90;;;;;;4989118;28;20050;-65
2022/03/27 00:54:38;;;;;;;26.63;12.18;;;8.10;99.90;;;;;;5002976;28;20041;-63
2022/03/27 00:57:06;;;;;;;23.98;12.40;;;8.10;99.90;;;;;;5008465;28;20053;-62
2022/03/27 00:59:33;;;;;;;23.88;11.90;;;8.10;99.90;;;;;;5002837;28;20030;-61
2022/03/27 01:02:01;;;;;;;21.50;10.98;;;8.10;99.90;;;;;;5003312;28;20045;-63
2022/03/27 01:04:29;;;;;;;22.80;10.60;;;8.00;99.90;;;;;;5004611;28;20053;-62
2022/03/27 01:06:58;;;;;;;26.73;11.43;;;8.00;99.90;;;;;;4988913;28;20433;-62
2022/03/27 01:09:38;;;;;;;20.48;11.23;;;8.00;99.90;;;;;;5008193;28;20053;-62
2022/03/27 01:12:18;;;;;;;24.52;10.57;;;7.90;99.90;;;;;;5008457;28;20508;-61
2022/03/27 01:14:46;;;;;;;25.85;12.07;;;7.90;99.90;;;;;;5008046;28;20050;-61
2022/03/27 01:17:16;;;;;;;19.05;11.18;;;7.90;99.90;;;;;;5008624;28;20049;-61
2022/03/27 01:19:45;;;;;;;;;;;7.80;99.90;;;;;;4991103;28;20525;-61
2022/03/27 01:22:14;;;;;;;21.58;10.25;;;7.80;99.90;;;;;;4988643;28;20400;-61
2022/03/27 01:24:44;;;;;;;25.85;10.63;;;7.70;99.90;;;;;;4986804;28;20397;-61
2022/03/27 01:27:11;;;;;;;20.88;11.10;;;7.70;99.90;;;;;;5008271;28;20053;-61
2022/03/27 01:29:40;;;;;;;24.45;10.35;;;7.60;99.90;;;;;;5006145;28;20046;-62
2022/03/27 01:32:14;;;;;;;21.10;9.90;;;7.60;99.90;;;;;;4997066;28;20049;-61
2022/03/27 01:34:44;;;;;;;22.55;11.13;;;7.50;99.90;;;;;;4982914;28;20049;-61
2022/03/27 01:37:14;;;;;;;23.40;10.20;;;7.50;99.90;;;;;;5011343;28;20126;-62
2022/03/27 01:39:42;;;;;;;;;;;7.40;99.90;;;;;;4993953;28;20500;-61
2022/03/27 01:42:10;;;;;;;23.63;10.05;;;7.30;99.90;;;;;;5007815;28;19921;-61
2022/03/27 01:44:38;;;;;;;28.17;10.75;;;7.20;99.90;;;;;;5011078;28;20046;-61
2022/03/27 01:47:06;;;;;;;28.10;11.27;;;7.20;99.90;;;;;;5010058;28;20053;-61
2022/03/27 01:49:34;;;;;;;22.33;11.02;;;7.10;99.90;;;;;;5011537;28;20052;-61
2022/03/27 01:52:02;;;;;;;25.58;12.18;;;7.00;99.90;;;;;;5010645;28;20496;-62
2022/03/27 01:54:29;;;;;;;28.05;11.30;;;6.90;99.90;;;;;;5010932;28;20408;-63
2022/03/27 01:56:57;;;;;;;26.15;11.70;;;6.80;99.90;;;;;;5011448;28;20042;-61
2022/03/27 01:59:25;;;;;;;21.63;11.15;;;6.70;99.90;;;;;;5009806;28;20057;-62
2022/03/27 02:01:53;;;;;;;28.92;11.68;;;6.60;99.90;;;;;;5011067;28;20050;-61
2022/03/27 02:04:21;;;;;;;29.05;12.00;;;6.60;99.90;;;;;;5011265;28;20049;-61
2022/03/27 02:06:48;;;;;;;23.13;11.80;;;6.50;99.90;;;;;;5003865;28;20057;-61
2022/03/27 02:09:16;;;;;;;24.70;12.27;;;6.50;99.90;;;;;;5011383;28;20409;-61
2022/03/27 02:11:44;;;;;;;25.85;12.40;;;6.50;99.90;;;;;;5011855;28;20053;-61
2022/03/27 02:14:12;;;;;;;25.25;11.20;;;6.50;99.90;;;;;;4996923;28;20045;-61
2022/03/27 02:16:40;;;;;;;24.90;10.82;;;6.40;99.90;;;;;;4997379;28;20536;-61
2022/03/27 02:19:09;;;;;;;20.08;11.43;;;6.30;99.90;;;;;;5014862;28;20049;-61
2022/03/27 02:21:38;;;;;;;;;;;6.20;99.90;;;;;;4997792;28;20053;-61
2022/03/27 02:24:06;;;;;;;26.90;12.30;;;6.10;99.90;;;;;;5014490;28;19928;-62
2022/03/27 02:26:34;;;;;;;26.35;11.23;;;6.00;99.90;;;;;;5014409;28;20042;-61
2022/03/27 02:29:02;;;;;;;26.85;11.95;;;6.00;99.90;;;;;;5014643;28;20057;-61
2022/03/27 02:31:29;;;;;;;28.23;11.25;;;5.90;99.90;;;;;;5014562;28;20042;-63
2022/03/27 02:33:57;;;;;;;23.27;11.63;;;5.50;99.90;;;;;;4996784;28;20060;-61
2022/03/27 02:36:25;;;;;;;25.77;12.32;;;5.80;99.90;;;;;;5014380;28;20041;-61
2022/03/27 02:38:52;;;;;;;38.08;11.95;;;5.80;99.90;;;;;;5014296;28;20169;-65
2022/03/27 02:41:20;;;;;;;27.05;12.45;;;5.80;99.90;;;;;;5014398;28;20049;-63
2022/03/27 02:43:48;;;;;;;22.23;10.60;;;5.80;99.90;;;;;;5014111;28;20038;-63
2022/03/27 02:46:15;;;;;;;26.83;11.43;;;5.70;99.90;;;;;;5013898;28;20069;-62
2022/03/27 02:48:43;;;;;;;24.25;12.10;;;5.70;99.90;;;;;;5014213;28;20053;-63
2022/03/27 02:51:11;;;;;;;27.30;12.65;;;5.70;99.90;;;;;;5014115;28;20362;-62
2022/03/27 02:53:38;;;;;;;28.48;11.68;;;5.60;99.90;;;;;;4980578;28;20049;-65
2022/03/27 02:56:08;;;;;;;26.20;11.77;;;5.60;99.90;;;;;;5014029;28;20042;-62
2022/03/27 02:58:35;;;;;;;26.40;11.65;;;5.50;99.90;;;;;;4996319;28;20060;-64
2022/03/27 03:01:04;;;;;;;23.15;12.20;;;5.50;99.90;;;;;;5014035;28;20072;-64
2022/03/27 03:03:32;;;;;;;25.20;11.35;;;5.40;99.90;;;;;;5013943;28;20050;-65
2022/03/27 03:06:05;;;;;;;24.38;12.88;;;5.40;99.90;;;;;;5013732;28;20045;-64
2022/03/27 03:08:36;;;;;;;25.35;11.38;;;5.40;99.90;;;;;;5013826;28;20049;-66
2022/03/27 03:11:04;;;;;;;40.67;12.82;;;5.30;99.90;;;;;;5013768;28;20057;-63
2022/03/27 03:13:32;;;;;;;22.20;12.02;;;5.30;99.90;;;;;;5013508;28;20053;-65
2022/03/27 03:16:00;;;;;;;26.17;13.13;;;5.20;99.90;;;;;;4995763;28;20057;-65
2022/03/27 03:18:29;;;;;;;31.05;13.40;;;5.20;99.90;;;;;;4996142;28;20050;-66
2022/03/27 03:20:56;;;;;;;27.42;11.80;;;5.20;99.90;;;;;;5012975;28;20054;-65
2022/03/27 03:23:24;;;;;;;29.17;12.75;;;5.10;99.90;;;;;;5012675;28;20065;-66
2022/03/27 03:25:53;;;;;;;25.95;11.65;;;5.10;99.90;;;;;;4995422;28;20045;-65
2022/03/27 03:28:34;;;;;;;22.05;11.70;;;5.10;99.90;;;;;;5013529;28;20052;-65
2022/03/27 03:31:01;;;;;;;29.17;12.65;;;5.00;99.90;;;;;;5013452;28;20504;-64
2022/03/27 03:33:29;;;;;;;26.30;12.27;;;4.90;99.90;;;;;;5013196;28;20056;-62
2022/03/27 03:35:57;;;;;;;26.73;12.27;;;4.90;99.90;;;;;;4995885;28;20520;-61
2022/03/27 03:38:24;;;;;;;24.58;11.60;;;4.80;99.90;;;;;;5013359;28;20141;-60
2022/03/27 03:40:52;;;;;;;30.85;13.05;;;4.80;99.90;;;;;;4995952;28;20050;-61
2022/03/27 03:43:20;;;;;;;29.67;13.45;;;4.70;99.90;;;;;;4995718;28;20050;-62
2022/03/27 03:45:48;;;;;;;28.38;12.77;;;4.70;99.90;;;;;;5012310;28;20057;-62
2022/03/27 03:48:17;;;;;;;23.08;11.77;;;4.60;99.90;;;;;;5013093;28;20038;-60
2022/03/27 03:50:44;;;;;;;27.38;11.93;;;4.60;99.90;;;;;;5013124;28;20049;-61
2022/03/27 03:53:12;;;;;;;31.30;12.45;;;4.60;99.90;;;;;;5013023;28;20038;-64
2022/03/27 03:55:40;;;;;;;25.63;12.18;;;4.50;99.90;;;;;;4995121;28;20053;-61
2022/03/27 03:58:08;;;;;;;23.40;11.60;;;4.50;99.90;;;;;;4995702;28;20057;-61
2022/03/27 04:00:36;;;;;;;28.42;11.43;;;4.40;99.90;;;;;;5012752;28;20042;-63
2022/03/27 04:03:04;;;;;;;26.55;11.75;;;4.40;99.90;;;;;;5012810;28;20045;-63
2022/03/27 04:05:32;;;;;;;32.17;12.55;;;4.40;99.90;;;;;;5012638;28;20076;-61
2022/03/27 04:08:00;;;;;;;26.00;12.35;;;4.40;99.90;;;;;;5012810;28;20050;-61
2022/03/27 04:10:28;;;;;;;28.08;11.73;;;4.30;99.90;;;;;;5012721;28;20050;-62
2022/03/27 04:12:56;;;;;;;27.00;12.27;;;4.30;99.90;;;;;;5012532;28;20041;-62
2022/03/27 04:15:24;;;;;;;27.90;11.77;;;4.20;99.90;;;;;;5012673;28;20444;-63
2022/03/27 04:18:13;;;;;;;26.05;13.00;;;4.20;99.90;;;;;;5012633;28;20499;-62
2022/03/27 04:20:41;;;;;;;37.63;15.32;;;4.10;99.90;;;;;;5012522;28;20531;-61
2022/03/27 04:23:09;;;;;;;26.50;12.73;;;4.10;99.90;;;;;;4994940;28;20485;-63
2022/03/27 04:25:38;;;;;;;30.13;13.68;;;4.00;99.90;;;;;;4994881;28;20403;-63
2022/03/27 04:28:10;;;;;;;26.73;13.18;;;4.10;99.90;;;;;;5012391;28;20046;-61
2022/03/27 04:30:38;;;;;;;28.00;12.38;;;4.10;99.90;;;;;;4994731;28;20501;-63
2022/03/27 04:33:07;;;;;;;23.48;10.88;;;4.10;99.90;;;;;;5012295;28;20382;-62
2022/03/27 04:35:35;;;;;;;33.67;12.75;;;4.10;99.90;;;;;;5012152;28;20046;-61
2022/03/27 04:38:03;;;;;;;25.42;10.80;;;4.10;99.90;;;;;;5012269;28;20050;-62
2022/03/27 04:40:31;;;;;;;28.52;10.95;;;4.00;99.90;;;;;;5012170;28;20057;-62
2022/03/27 04:42:59;;;;;;;24.00;12.32;;;4.00;99.90;;;;;;4994607;28;20045;-62
2022/03/27 04:45:27;;;;;;;28.58;12.70;;;3.90;99.90;;;;;;4994543;28;20057;-61
2022/03/27 04:47:55;;;;;;;25.77;12.30;;;3.90;99.90;;;;;;4983617;28;20058;-61
2022/03/27 04:50:22;;;;;;;29.58;11.60;;;3.90;99.90;;;;;;4989190;28;20047;-61
2022/03/27 04:52:50;;;;;;;22.42;11.60;;;3.90;99.90;;;;;;4972029;28;20058;-63
2022/03/27 04:55:18;;;;;;;27.17;12.27;;;3.90;99.90;;;;;;4989432;28;20053;-62
2022/03/27 04:57:46;;;;;;;27.67;13.52;;;3.90;99.90;;;;;;4993874;28;20038;-61
2022/03/27 05:00:20;;;;;;;34.20;13.57;;;3.80;99.90;;;;;;4987446;28;20061;-63
2022/03/27 05:02:48;;;;;;;22.42;11.38;;;3.80;99.90;;;;;;4992685;28;20547;-62
2022/03/27 05:05:17;;;;;;;24.00;11.52;;;3.80;99.90;;;;;;5005417;28;20057;-66
2022/03/27 05:07:44;;;;;;;31.88;13.13;;;3.80;99.90;;;;;;4987661;28;20049;-62
2022/03/27 05:10:13;;;;;;;28.20;11.93;;;3.80;99.90;;;;;;4975050;28;20054;-61
2022/03/27 05:12:41;;;;;;;28.13;13.15;;;3.80;99.90;;;;;;4992700;28;20045;-63
2022/03/27 05:15:09;;;;;;;30.45;12.50;;;3.80;99.90;;;;;;4991285;28;20054;-61
2022/03/27 05:17:56;;;;;;;27.02;12.60;;;3.80;99.90;;;;;;4998241;28;20042;-64
2022/03/27 05:20:25;;;;;;;26.30;12.10;;;3.80;99.90;;;;;;4988956;28;20054;-62
2022/03/27 05:22:55;;;;;;;28.17;12.80;;;3.80;99.90;;;;;;4972842;28;20050;-64
2022/03/27 05:25:23;;;;;;;27.77;11.27;;;3.80;99.90;;;;;;4988831;28;20043;-63
2022/03/27 05:27:53;;;;;;;27.83;11.73;;;3.80;99.90;;;;;;4996923;28;20061;-63
2022/03/27 05:30:23;;;;;;;28.70;11.15;;;3.80;99.90;;;;;;4989584;28;20050;-66
2022/03/27 05:32:53;;;;;;;31.08;13.05;;;3.70;99.90;;;;;;4989412;28;20046;-63
2022/03/27 05:35:21;;;;;;;26.48;12.70;;;3.70;99.90;;;;;;5004629;28;20053;-66
2022/03/27 05:37:50;;;;;;;34.13;12.77;;;3.70;99.90;;;;;;4990232;28;20509;-66
2022/03/27 05:40:20;;;;;;;25.77;12.43;;;3.60;99.90;;;;;;4974304;28;20043;-62
2022/03/27 05:42:49;;;;;;;29.08;12.05;;;3.70;99.90;;;;;;4988386;28;20053;-67
2022/03/27 05:45:19;;;;;;;31.40;14.15;;;3.60;99.90;;;;;;4987929;28;20050;-65
2022/03/27 05:47:47;;;;;;;27.08;12.70;;;3.60;99.90;;;;;;4993487;28;20065;-61
2022/03/27 05:50:18;;;;;;;28.63;13.23;;;3.60;99.90;;;;;;4992718;28;20054;-64
2022/03/27 05:52:46;;;;;;;28.83;13.60;;;3.60;99.90;;;;;;4995317;28;20054;-64
2022/03/27 05:55:14;;;;;;;33.75;13.25;;;3.60;99.90;;;;;;4994501;28;20393;-62
2022/03/27 05:57:42;;;;;;;26.40;13.38;;;3.70;99.90;;;;;;5007610;28;20042;-64
2022/03/27 06:00:12;;;;;;;27.20;13.20;;;3.70;99.90;;;;;;4961386;28;20390;-63
2022/03/27 06:02:43;;;;;;;31.92;14.48;;;3.70;99.90;;;;;;4979612;28;20061;-61
2022/03/27 06:05:11;;;;;;;35.67;13.50;;;3.70;99.90;;;;;;4991039;28;20042;-63
2022/03/27 06:07:47;;;;;;;27.92;13.48;;;3.70;99.90;;;;;;5011136;28;20050;-62
2022/03/27 06:10:16;;;;;;;30.77;13.65;;;3.70;99.90;;;;;;4993795;28;20071;-62
2022/03/27 06:12:44;;;;;;;28.95;13.43;;;3.80;99.90;;;;;;5011205;28;20049;-62
2022/03/27 06:15:13;;;;;;;35.00;14.50;;;3.80;99.90;;;;;;4978428;28;20053;-61
2022/03/27 06:17:45;;;;;;;28.95;14.10;;;3.80;99.90;;;;;;5010148;28;20050;-61
2022/03/27 06:20:15;;;;;;;31.65;13.82;;;3.80;99.90;;;;;;4974606;28;20049;-62
2022/03/27 06:22:44;;;;;;;31.33;12.45;;;3.80;99.90;;;;;;4994258;28;20378;-62
2022/03/27 06:25:14;;;;;;;29.48;13.20;;;3.70;99.90;;;;;;5007673;28;20485;-64
2022/03/27 06:27:42;;;;;;;34.17;14.27;;;3.80;99.90;;;;;;4998272;28;20045;-61
2022/03/27 06:30:15;;;;;;;30.17;12.57;;;3.80;99.90;;;;;;5008592;28;20054;-61
2022/03/27 06:32:44;;;;;;;28.98;12.88;;;3.80;99.90;;;;;;4993791;28;20383;-61
2022/03/27 06:35:15;;;;;;;29.20;13.20;;;3.80;99.90;;;;;;4993574;28;20041;-61
2022/03/27 06:37:43;;;;;;;34.40;14.85;;;3.80;99.90;;;;;;4993371;28;20050;-62
2022/03/27 06:40:13;;;;;;;29.85;14.23;;;3.90;99.90;;;;;;4993219;28;20066;-61
2022/03/27 06:42:43;;;;;;;32.60;14.25;;;4.00;99.90;;;;;;5010111;28;20069;-62
2022/03/27 06:45:12;;;;;;;36.40;13.88;;;4.00;99.90;;;;;;4989641;28;20486;-62
2022/03/27 06:47:41;;;;;;;34.10;14.30;;;4.10;99.90;;;;;;4993148;28;20053;-62
2022/03/27 06:50:09;;;;;;;33.90;13.75;;;4.10;99.90;;;;;;5006286;28;20292;-64
2022/03/27 06:52:37;;;;;;;33.40;14.35;;;4.20;99.90;;;;;;4992410;28;20474;-61
2022/03/27 06:55:06;;;;;;;32.28;13.40;;;4.30;99.90;;;;;;5000946;28;20043;-65
2022/03/27 06:57:34;;;;;;;32.77;14.23;;;4.30;99.90;;;;;;4996040;28;20049;-63
2022/03/27 07:03:01;;;;;;;35.30;14.30;;;4.50;99.90;;;;;;5007069;28;20060;-62
2022/03/27 07:05:36;;;;;;;34.95;15.13;;;4.60;99.90;;;;;;4993379;28;20061;-62
2022/03/27 07:08:10;;;;;;;34.35;13.82;;;4.70;99.90;;;;;;4998113;28;20437;-64
2022/03/27 07:10:38;;;;;;;32.20;14.02;;;4.80;99.90;;;;;;5008827;28;20504;-61
2022/03/27 07:13:10;;;;;;;32.22;13.82;;;4.90;99.90;;;;;;4996089;28;20073;-61
2022/03/27 07:15:39;;;;;;;34.42;14.88;;;4.90;99.90;;;;;;5008905;28;20053;-64
2022/03/27 07:18:08;;;;;;;37.63;15.40;;;5.00;99.90;;;;;;5009723;28;20042;-62
2022/03/27 07:20:37;;;;;;;37.53;14.50;;;5.10;99.90;;;;;;5010103;28;20060;-64
2022/03/27 07:23:06;;;;;;;32.05;14.77;;;5.20;99.90;;;;;;5009955;28;20524;-65
2022/03/27 07:25:36;;;;;;;37.05;15.93;;;5.30;99.90;;;;;;4992615;28;20057;-63
2022/03/27 07:28:05;;;;;;;32.72;15.10;;;5.40;99.90;;;;;;5010006;28;20505;-63
2022/03/27 07:30:34;;;;;;;34.03;15.02;;;5.50;99.90;;;;;;5008166;28;20049;-63
2022/03/27 07:33:02;;;;;;;27.58;13.43;;;5.60;99.90;;;;;;5006348;28;20405;-62
2022/03/27 07:35:34;;;;;;;29.02;12.65;;;5.80;99.90;;;;;;5007540;28;20050;-63
2022/03/27 07:38:03;;;;;;;26.23;11.60;;;5.90;99.90;;;;;;5009468;28;20046;-62
2022/03/27 07:40:31;;;;;;;27.52;11.93;;;6.00;99.90;;;;;;4991167;28;20046;-63
2022/03/27 07:43:00;;;;;;;24.30;11.05;;;6.20;99.90;;;;;;5005954;28;20046;-65
2022/03/27 07:45:31;;;;;;;26.70;11.25;;;6.30;99.90;;;;;;4983875;28;20055;-64
2022/03/27 07:47:59;;;;;;;23.42;11.60;;;6.50;99.90;;;;;;5007224;28;20049;-63
2022/03/27 07:50:30;;;;;;;19.35;10.57;;;6.60;99.90;;;;;;4991609;28;20049;-63
2022/03/27 07:53:04;;;;;;;32.40;12.32;;;6.80;99.90;;;;;;4997356;28;20054;-63
2022/03/27 07:55:32;;;;;;;21.85;9.02;;;6.90;99.90;;;;;;5008911;28;20511;-64
2022/03/27 07:58:02;;;;;;;19.73;8.68;;;7.10;99.90;;;;;;5001618;28;20062;-64
2022/03/27 08:00:30;;;;;;;;;;;7.20;99.90;;;;;;4999725;28;20053;-63
2022/03/27 08:02:58;;;;;;;21.15;9.20;;;7.30;99.90;;;;;;5004954;28;19944;-63
2022/03/27 08:05:27;;;;;;;17.48;9.07;;;7.50;99.90;;;;;;5008693;28;20049;-63
2022/03/27 08:07:55;;;;;;;20.40;8.98;;;7.60;99.90;;;;;;4982445;28;20054;-65
2022/03/27 08:10:22;;;;;;;20.42;10.00;;;7.70;99.90;;;;;;5004302;28;20146;-64
2022/03/27 08:12:50;;;;;;;20.38;9.60;;;7.90;99.90;;;;;;4992244;28;20413;-62
2022/03/27 08:15:19;;;;;;;20.63;9.65;;;8.00;99.90;;;;;;5009636;28;20053;-61
2022/03/27 08:17:53;;;;;;;20.58;8.68;;;8.10;99.90;;;;;;5008570;28;20049;-63
2022/03/27 08:20:24;;;;;;;17.33;7.95;;;8.20;99.90;;;;;;5000146;28;20621;-62
2022/03/27 08:22:52;;;;;;;15.65;8.55;;;8.30;99.90;;;;;;4986538;28;20060;-65
2022/03/27 08:28:08;;;;;;;17.35;8.02;;;8.50;99.90;;;;;;5001996;28;20051;-63
2022/03/27 08:30:38;;;;;;;19.95;9.27;;;8.60;99.90;;;;;;5009148;28;20049;-62
2022/03/27 08:33:06;;;;;;;17.67;7.70;;;8.70;99.90;;;;;;5008013;28;20436;-67
2022/03/27 08:35:33;;;;;;;17.08;6.72;;;8.80;99.90;;;;;;5007629;28;20049;-63
2022/03/27 08:38:01;;;;;;;18.80;7.65;;;9.00;99.90;;;;;;4991369;28;20401;-62
2022/03/27 08:40:30;;;;;;;14.88;7.20;;;9.10;99.90;;;;;;5007118;28;20053;-62
2022/03/27 08:42:58;;;;;;;18.33;7.13;;;9.20;99.90;;;;;;4991414;28;20529;-62
2022/03/27 08:45:27;;;;;;;16.73;7.25;;;9.30;99.90;;;;;;5007950;28;20050;-62
2022/03/27 08:47:54;;;;;;;12.87;6.50;;;9.40;99.90;;;;;;5006735;28;20397;-62
2022/03/27 08:50:31;;;;;;;13.18;6.47;;;9.50;99.90;;;;;;4989259;28;20295;-62
2022/03/27 08:53:03;;;;;;;12.77;6.20;;;9.60;99.90;;;;;;4990799;28;20064;-62
2022/03/27 08:55:46;;;;;;;15.02;6.90;;;9.70;99.90;;;;;;4990578;28;20044;-62
2022/03/27 08:58:14;;;;;;;16.80;6.13;;;9.90;99.90;;;;;;5008098;28;20046;-62
2022/03/27 09:00:44;;;;;;;12.32;6.30;;;10.00;99.90;;;;;;5008692;28;20072;-62
2022/03/27 09:03:12;;;;;;;;;;;10.10;99.90;;;;;;4975006;28;20520;-63
2022/03/27 09:05:40;;;;;;;9.35;4.93;;;10.20;99.90;;;;;;5008545;28;19926;-64
2022/03/27 09:08:10;;;;;;;11.77;4.70;;;10.30;99.90;;;;;;4990069;28;20050;-62
2022/03/27 09:10:40;;;;;;;10.07;3.88;;;10.40;99.90;;;;;;5007087;28;21390;-63
2022/03/27 09:13:14;;;;;;;6.07;3.55;;;10.50;99.90;;;;;;4990782;28;20045;-61
2022/03/27 09:15:43;;;;;;;7.72;3.35;;;10.70;99.90;;;;;;5008660;28;20053;-62
2022/03/27 09:18:15;;;;;;;10.77;3.83;;;10.80;99.90;;;;;;5002667;28;20054;-62
2022/03/27 09:20:47;;;;;;;6.15;3.63;;;11.00;99.90;;;;;;5005841;28;20050;-62
2022/03/27 09:23:24;;;;;;;8.68;4.55;;;11.20;99.90;;;;;;5008680;28;20496;-62
2022/03/27 09:25:56;;;;;;;10.88;4.82;;;11.40;99.90;;;;;;5005694;28;20058;-62
2022/03/27 09:28:34;;;;;;;9.27;5.38;;;11.50;99.90;;;;;;5010002;28;20057;-59
2022/03/27 09:31:04;;;;;;;12.13;5.75;;;11.60;99.90;;;;;;5008717;28;20038;-62
2022/03/27 09:33:46;;;;;;;13.70;6.95;;;11.70;99.90;;;;;;4993131;28;20042;-59
2022/03/27 09:36:17;;;;;;;13.88;6.82;;;11.80;99.90;;;;;;4988613;28;20069;-59
2022/03/27 09:39:08;;;;;;;14.88;7.78;;;11.90;99.90;;;;;;5012162;28;20060;-62
2022/03/27 09:41:37;;;;;;;14.93;7.63;;;12.00;99.90;;;;;;4973753;28;20050;-63
2022/03/27 09:44:18;;;;;;;17.10;6.30;;;12.10;99.90;;;;;;5004465;28;20412;-65
2022/03/27 09:47:00;;;;;;;11.77;5.28;;;12.20;99.90;;;;;;5010864;28;20064;-61
2022/03/27 09:49:30;;;;;;;8.25;3.10;;;12.30;99.90;;;;;;4997604;28;20054;-63
2022/03/27 09:52:08;;;;;;;6.53;3.72;;;12.40;99.90;;;;;;4995032;28;20048;-60
2022/03/27 09:54:45;;;;;;;11.45;3.28;;;12.50;99.90;;;;;;5011670;28;20053;-60
2022/03/27 09:57:25;;;;;;;7.47;3.35;;;12.60;99.90;;;;;;5011402;28;20049;-60
2022/03/27 09:59:58;;;;;;;9.45;3.35;;;12.60;99.90;;;;;;5009548;28;20049;-62
2022/03/27 10:02:30;;;;;;;9.20;3.17;;;12.70;99.90;;;;;;5010941;28;20042;-61
2022/03/27 10:05:09;;;;;;;6.18;3.33;;;12.80;99.90;;;;;;5010140;28;20861;-60
2022/03/27 10:07:50;;;;;;;10.60;3.75;;;12.90;99.90;;;;;;5002949;28;20413;-62
2022/03/27 10:10:20;;;;;;;7.78;3.70;;;13.00;99.90;;;;;;4998373;28;20391;-62
2022/03/27 10:12:53;;;;;;;10.43;3.80;;;13.10;99.90;;;;;;4993283;28;20053;-62
2022/03/27 10:15:24;;;;;;;9.57;3.85;;;13.20;99.90;;;;;;5011725;28;20050;-62
2022/03/27 10:17:58;;;;;;;8.88;4.15;;;13.30;99.90;;;;;;5011433;28;20053;-62
2022/03/27 10:20:33;;;;;;;9.88;4.25;;;13.40;99.90;;;;;;5009477;28;20057;-64
2022/03/27 10:23:02;;;;;;;9.20;4.43;;;13.50;99.90;;;;;;5006910;28;20070;-62
2022/03/27 10:25:38;;;;;;;12.32;3.85;;;13.60;99.90;;;;;;4976474;28;20042;-62
2022/03/27 10:28:07;;;;;;;9.48;4.53;;;13.70;99.90;;;;;;5005837;28;20509;-62
2022/03/27 10:30:34;;;;;;;9.15;4.22;;;13.90;99.90;;;;;;4990753;28;20057;-63
2022/03/27 10:33:03;;;;;;;10.02;4.75;;;14.00;99.90;;;;;;5007506;28;20088;-61
2022/03/27 10:35:52;;;;;;;9.85;4.97;;;14.10;99.90;;;;;;5009170;28;20052;-62
2022/03/27 10:38:32;;;;;;;9.23;4.45;;;14.20;99.90;;;;;;5010136;28;20413;-62
2022/03/27 10:41:25;;;;;;;8.30;4.05;;;14.40;99.90;;;;;;4993588;28;20053;-61
2022/03/27 10:44:12;;;;;;;8.82;4.30;;;14.50;99.90;;;;;;4996197;28;20050;-62
2022/03/27 10:46:40;;;;;;;9.73;4.25;;;14.70;99.90;;;;;;4993322;28;20065;-62
2022/03/27 10:49:16;;;;;;;10.95;4.93;;;14.80;99.90;;;;;;5010532;28;20045;-62
2022/03/27 10:51:46;;;;;;;9.85;4.22;;;14.90;99.90;;;;;;5009084;28;20042;-64
2022/03/27 10:54:19;;;;;;;8.75;4.15;;;15.00;99.90;;;;;;5010035;28;20050;-64
2022/03/27 10:56:50;;;;;;;9.20;4.20;;;15.00;99.90;;;;;;5004929;28;20397;-66
2022/03/27 10:59:24;;;;;;;7.60;4.75;;;15.10;99.90;;;;;;5009266;28;20046;-67
2022/03/27 11:01:54;;;;;;;7.05;4.10;;;15.20;99.90;;;;;;5001120;28;20400;-65
2022/03/27 11:04:34;;;;;;;7.70;4.15;;;15.30;99.90;;;;;;5004546;28;20052;-63
2022/03/27 11:07:20;;;;;;;9.88;4.20;;;15.50;99.90;;;;;;5010354;28;20068;-63
2022/03/27 11:09:48;;;;;;;6.80;4.10;;;15.50;99.90;;;;;;5010535;28;20069;-63
2022/03/27 11:12:24;;;;;;;8.15;4.03;;;15.60;99.90;;;;;;4983672;28;20048;-65
2022/03/27 11:14:52;;;;;;;7.68;4.40;;;15.70;99.90;;;;;;4998550;28;20061;-67
2022/03/27 11:17:37;;;;;;;9.32;4.38;;;15.80;99.90;;;;;;4993557;28;20046;-67
2022/03/27 11:20:33;;;;;;;11.43;4.88;;;15.90;99.90;;;;;;4995903;28;20045;-62
2022/03/27 11:23:04;;;;;;;8.95;4.40;;;15.90;99.90;;;;;;4969095;28;20057;-66
2022/03/27 11:25:37;;;;;;;8.30;3.95;;;15.90;99.90;;;;;;5003421;28;20094;-67
2022/03/27 11:28:11;;;;;;;7.97;4.20;;;15.90;99.90;;;;;;4999533;28;20552;-65
2022/03/27 11:31:02;;;;;;;8.00;4.50;;;16.00;99.90;;;;;;5010470;28;20057;-64
2022/03/27 11:33:30;;;;;;;7.72;3.90;;;16.00;99.90;;;;;;5000330;28;20054;-67
2022/03/27 11:36:01;;;;;;;8.70;3.95;;;16.10;99.90;;;;;;5010184;28;20041;-68
2022/03/27 11:38:30;;;;;;;9.80;3.70;;;16.20;99.90;;;;;;4992489;28;20655;-65
2022/03/27 11:41:21;;;;;;;6.65;3.97;;;16.20;99.90;;;;;;4991291;28;20049;-65
2022/03/27 11:43:50;;;;;;;7.93;3.88;;;16.20;99.90;;;;;;4998973;28;20076;-62
2022/03/27 11:46:29;;;;;;;6.07;3.58;;;16.30;99.90;;;;;;4991707;28;20528;-61
2022/03/27 11:48:58;;;;;;;6.72;3.90;;;16.50;99.90;;;;;;5009443;28;20057;-65
2022/03/27 11:51:28;;;;;;;6.95;3.38;;;16.50;99.90;;;;;;5009850;28;20050;-62
2022/03/27 11:53:57;;;;;;;5.68;3.72;;;16.60;99.90;;;;;;5008831;28;20478;-62
2022/03/27 11:56:25;;;;;;;8.95;3.25;;;16.70;99.90;;;;;;4989981;28;20050;-61
2022/03/27 11:59:06;;;;;;;6.22;3.53;;;16.80;99.90;;;;;;5005188;28;20050;-61
2022/03/27 12:01:36;;;;;;;6.43;3.38;;;16.90;99.90;;;;;;5009615;28;20051;-61
2022/03/27 12:04:06;;;;;;;5.55;3.05;;;17.00;99.90;;;;;;5009446;28;20054;-61
2022/03/27 12:06:34;;;;;;;4.25;2.60;;;17.20;99.90;;;;;;4992225;28;20050;-61
2022/03/27 12:09:02;;;;;;;3.85;2.17;;;17.20;99.90;;;;;;5008185;28;20049;-61
2022/03/27 12:11:30;;;;;;;4.63;2.55;;;17.30;99.90;;;;;;4990134;28;20684;-61
2022/03/27 12:14:07;;;;;;;5.25;2.80;;;17.50;99.90;;;;;;4999651;28;20054;-62
2022/03/27 12:16:37;;;;;;;4.15;2.65;;;17.80;99.90;;;;;;5009201;28;20058;-62
2022/03/27 12:19:13;;;;;;;5.63;2.90;;;17.80;99.30;;;;;;5009259;28;20054;-60
2022/03/27 12:21:46;;;;;;;4.63;2.50;;;17.90;99.20;;;;;;5009428;28;20052;-61
2022/03/27 12:24:16;;;;;;;5.47;2.85;;;18.10;99.60;;;;;;4973397;28;20057;-61
2022/03/27 12:29:49;;;;;;;5.53;3.35;;;18.20;98.00;;;;;;4989603;28;20050;-61
2022/03/27 12:32:25;;;;;;;9.10;2.92;;;18.20;98.00;;;;;;4986884;28;20038;-62
2022/03/27 12:34:57;;;;;;;5.38;3.33;;;18.30;97.40;;;;;;5003143;28;20052;-61
2022/03/27 12:37:26;;;;;;;6.38;3.40;;;18.20;97.00;;;;;;5008097;28;20515;-61
2022/03/27 12:39:53;;;;;;;7.70;4.07;;;18.10;97.20;;;;;;5002983;28;20053;-61
2022/03/27 12:42:36;;;;;;;5.70;4.00;;;18.00;97.60;;;;;;4989415;28;20381;-61
2022/03/27 12:45:07;;;;;;;9.07;4.47;;;17.90;98.10;;;;;;5008017;28;20041;-61
2022/03/27 12:47:39;;;;;;;9.13;4.88;;;17.90;98.40;;;;;;5008897;28;20073;-62
2022/03/27 12:50:12;;;;;;;8.38;5.15;;;18.00;98.90;;;;;;4990855;28;20556;-61
2022/03/27 12:52:48;;;;;;;10.95;6.20;;;18.00;98.20;;;;;;5009020;28;20049;-62
2022/03/27 12:55:16;;;;;;;10.98;6.07;;;18.00;98.20;;;;;;4987489;28;20050;-61
2022/03/27 12:57:55;;;;;;;19.85;7.18;;;18.00;98.20;;;;;;4994874;28;20057;-61
2022/03/27 13:00:25;;;;;;;12.93;8.00;;;17.90;97.90;;;;;;5009080;28;20037;-61
2022/03/27 13:03:12;;;;;;;14.23;7.95;;;17.90;98.30;;;;;;5007446;28;20062;-62
2022/03/27 13:05:43;;;;;;;11.82;8.05;;;17.80;98.50;;;;;;5008694;28;20042;-61